createdAt,value
2022-11-04T00:05:51.777Z,26.344
2022-11-04T00:20:53.624Z,27.01
2022-11-04T00:35:55.478Z,27.488
2022-11-04T00:50:57.309Z,27.552
2022-11-04T01:05:59.134Z,27.431
2022-11-04T01:21:01.323Z,27.24
2022-11-04T01:36:03.696Z,27.857
2022-11-04T01:51:05.583Z,26.457
2022-11-04T02:06:07.430Z,27.286
2022-11-04T02:21:09.310Z,26.537
2022-11-04T02:36:11.169Z,26.367
2022-11-04T02:51:12.993Z,26.544
2022-11-04T03:06:14.768Z,26.248
2022-11-04T03:21:16.685Z,26.002
2022-11-04T03:36:18.554Z,24.707
2022-11-04T03:51:20.429Z,25.286
2022-11-04T04:06:22.313Z,25.115
2022-11-04T04:21:24.183Z,24.062
2022-11-04T04:36:25.919Z,24.455
2022-11-04T04:51:27.747Z,26.025
2022-11-04T05:06:29.612Z,26.195
2022-11-04T05:21:31.456Z,25.509
2022-11-04T05:36:33.302Z,25.54
2022-11-04T05:51:35.167Z,26.036
2022-11-04T06:06:37.088Z,26.074
2022-11-04T06:21:38.929Z,25.97
2022-11-04T06:36:40.796Z,25.755
2022-11-04T06:51:42.642Z,25.553
2022-11-04T07:06:44.936Z,25.041
2022-11-04T07:21:46.979Z,25.25
2022-11-04T07:36:49.023Z,25.156
2022-11-04T07:51:50.826Z,23.66
2022-11-04T08:06:52.650Z,24.36
2022-11-04T08:21:54.537Z,24.522
2022-11-04T08:36:56.408Z,24.495
2022-11-04T08:51:58.254Z,25.233
2022-11-04T09:07:05.188Z,25.73
2022-11-04T09:22:09.618Z,26.121
2022-11-04T09:37:11.469Z,26.59
2022-11-04T09:52:13.335Z,26.862
2022-11-04T10:07:15.167Z,26.102
2022-11-04T10:22:17.021Z,26.26
2022-11-04T10:37:18.857Z,26.577
2022-11-04T10:52:23.039Z,26.554
2022-11-04T11:07:25.021Z,26.596
2022-11-04T11:22:26.882Z,27.648
2022-11-04T11:37:28.737Z,27.232
2022-11-04T11:52:30.578Z,25.92
2022-11-04T12:23:04.244Z,26.122
2022-11-04T12:38:06.103Z,26.353
2022-11-04T12:53:08.388Z,26.284
2022-11-04T13:08:14.188Z,26.977
2022-11-04T13:23:16.560Z,26.093
2022-11-04T13:38:18.472Z,26.236
2022-11-04T13:53:20.360Z,26.348
2022-11-04T14:08:22.205Z,27.333
2022-11-04T14:23:24.054Z,26.984
2022-11-04T14:38:25.884Z,29.015
2022-11-04T14:53:27.702Z,27.251
2022-11-04T15:08:29.539Z,27.488
2022-11-04T15:23:31.387Z,27.664
2022-11-04T15:38:33.217Z,27.552
2022-11-04T15:53:35.183Z,28.192
2022-11-04T16:08:36.999Z,27.71
2022-11-04T16:23:39.182Z,28.637
2022-11-04T16:38:41.003Z,29.043
2022-11-04T16:53:42.888Z,29.276
2022-11-04T17:08:44.955Z,29.203
2022-11-04T17:23:47.171Z,27.716
2022-11-04T17:38:49.027Z,28.217
2022-11-04T17:53:50.917Z,27.858
2022-11-04T18:08:52.792Z,28.107
2022-11-04T18:23:54.675Z,27.638
2022-11-04T18:38:56.529Z,27.352
2022-11-04T18:53:58.402Z,27.15
2022-11-04T19:09:04.990Z,25.822
2022-11-04T19:24:15.531Z,26.828
2022-11-04T19:39:17.351Z,26.478
2022-11-04T19:54:19.175Z,26.74
2022-11-04T20:09:21.051Z,28.057
2022-11-04T20:24:22.913Z,27.628
2022-11-04T20:39:24.757Z,27.405
2022-11-04T20:54:26.595Z,26.25
2022-11-04T21:09:28.474Z,26.13
2022-11-04T21:24:32.750Z,26.797
2022-11-04T21:39:38.182Z,26.893
2022-11-04T21:54:40.005Z,26.66
2022-11-04T22:09:41.859Z,25.729
2022-11-04T22:24:43.789Z,25.985
2022-11-04T22:39:45.650Z,26.086
2022-11-04T22:54:47.482Z,24.785
2022-11-04T23:09:49.347Z,26.14
2022-11-04T23:24:51.226Z,26.358
2022-11-04T23:39:53.077Z,27.214
2022-11-04T23:54:54.958Z,26.028
